createdAt,value
2018-11-22T00:01:03.133Z,30.47
2018-11-22T00:03:50.773Z,30.03
2018-11-22T00:06:38.371Z,28.00
2018-11-22T00:09:25.985Z,29.00
2018-11-22T00:12:13.596Z,29.23
2018-11-22T00:15:01.195Z,29.87
2018-11-22T00:17:49.066Z,29.90
2018-11-22T00:20:36.667Z,30.70
2018-11-22T00:23:24.245Z,30.73
2018-11-22T00:26:11.865Z,32.40
2018-11-22T00:28:59.462Z,31.03
2018-11-22T00:31:47.047Z,32.17
2018-11-22T00:34:34.638Z,30.43
2018-11-22T00:37:22.226Z,32.00
2018-11-22T00:40:29.232Z,31.40
2018-11-22T00:43:16.830Z,30.43
2018-11-22T00:46:04.563Z,31.77
2018-11-22T00:48:52.183Z,32.57
2018-11-22T00:51:39.787Z,33.80
2018-11-22T00:54:27.399Z,34.63
2018-11-22T00:57:14.984Z,32.50
2018-11-22T01:00:02.576Z,32.33
2018-11-22T01:02:50.320Z,34.80
2018-11-22T01:05:37.909Z,32.93
2018-11-22T01:08:25.496Z,33.67
2018-11-22T01:11:13.092Z,33.17
2018-11-22T01:14:00.661Z,32.37
2018-11-22T01:16:48.244Z,32.27
2018-11-22T01:19:35.864Z,32.07
2018-11-22T01:22:23.468Z,31.50
2018-11-22T01:25:12.152Z,30.60
2018-11-22T01:27:59.743Z,31.43
2018-11-22T01:30:47.350Z,31.77
2018-11-22T01:33:34.949Z,31.57
2018-11-22T01:36:22.617Z,29.50
2018-11-22T01:39:11.272Z,29.53
2018-11-22T01:41:58.903Z,31.73
2018-11-22T01:44:46.479Z,31.23
2018-11-22T01:47:34.115Z,31.83
2018-11-22T01:50:21.705Z,31.17
2018-11-22T01:53:09.305Z,30.10
2018-11-22T01:55:56.900Z,31.63
2018-11-22T01:58:44.486Z,30.80
2018-11-22T02:01:32.071Z,33.33
2018-11-22T02:04:19.659Z,32.17
2018-11-22T02:07:07.258Z,29.90
2018-11-22T02:09:54.848Z,30.40
2018-11-22T02:12:42.447Z,30.77
2018-11-22T02:15:30.049Z,31.40
2018-11-22T02:18:17.652Z,29.47
2018-11-22T02:21:05.394Z,31.27
2018-11-22T02:23:53.007Z,30.23
2018-11-22T02:26:40.596Z,29.83
2018-11-22T02:29:28.182Z,30.00
2018-11-22T02:32:15.967Z,30.90
2018-11-22T02:35:03.631Z,30.93
2018-11-22T02:37:51.233Z,30.67
2018-11-22T02:40:38.859Z,29.03
2018-11-22T02:43:26.407Z,29.33
2018-11-22T02:46:13.986Z,28.50
2018-11-22T02:49:01.583Z,29.33
2018-11-22T02:51:49.211Z,30.00
2018-11-22T02:54:36.795Z,28.77
2018-11-22T02:57:24.387Z,29.97
2018-11-22T03:00:50.577Z,29.90
2018-11-22T03:03:38.172Z,29.00
2018-11-22T03:06:25.764Z,29.40
2018-11-22T03:09:13.366Z,30.40
2018-11-22T03:12:00.979Z,29.83
2018-11-22T03:14:48.570Z,30.30
2018-11-22T03:20:23.840Z,29.67
2018-11-22T03:23:11.437Z,29.00
2018-11-22T03:25:59.019Z,30.17
2018-11-22T03:28:46.614Z,28.37
2018-11-22T03:31:34.303Z,27.67
2018-11-22T03:34:21.886Z,29.73
2018-11-22T03:37:09.481Z,29.20
2018-11-22T03:39:57.070Z,29.60
2018-11-22T03:42:44.828Z,28.77
2018-11-22T03:45:32.413Z,29.10
2018-11-22T03:48:20.136Z,30.10
2018-11-22T03:51:07.758Z,28.50
2018-11-22T03:53:55.399Z,29.73
2018-11-22T03:56:43.049Z,29.30
2018-11-22T03:59:30.656Z,29.53
2018-11-22T04:02:18.264Z,28.03
2018-11-22T04:05:07.097Z,28.03
2018-11-22T04:07:54.729Z,28.53
2018-11-22T04:10:42.353Z,27.60
2018-11-22T04:13:29.922Z,27.27
2018-11-22T04:16:17.511Z,27.47
2018-11-22T04:19:05.143Z,29.43
2018-11-22T04:21:52.739Z,27.83
2018-11-22T04:24:40.340Z,30.00
2018-11-22T04:27:27.947Z,30.27
2018-11-22T04:30:17.386Z,29.63
2018-11-22T04:33:04.971Z,29.53
2018-11-22T04:35:52.588Z,32.90
2018-11-22T04:38:40.188Z,29.73
2018-11-22T04:41:27.777Z,32.13
2018-11-22T04:44:15.371Z,30.20
2018-11-22T04:47:02.954Z,30.27
2018-11-22T04:49:50.564Z,30.20
2018-11-22T04:52:38.155Z,30.10
2018-11-22T04:55:25.753Z,28.07
2018-11-22T04:58:13.579Z,29.63
2018-11-22T05:01:01.173Z,29.17
2018-11-22T05:03:48.750Z,27.47
2018-11-22T05:06:36.349Z,29.10
2018-11-22T05:09:23.948Z,28.40
2018-11-22T05:12:11.532Z,27.13
2018-11-22T05:14:59.120Z,27.20
2018-11-22T05:17:46.766Z,28.77
2018-11-22T05:20:34.366Z,29.10
2018-11-22T05:23:21.951Z,27.37
2018-11-22T05:26:09.547Z,27.87
2018-11-22T05:28:57.135Z,26.97
2018-11-22T05:31:44.744Z,27.70
2018-11-22T05:34:32.328Z,28.07
2018-11-22T05:37:19.931Z,29.73
2018-11-22T05:40:08.708Z,30.23
2018-11-22T05:42:56.511Z,29.37
2018-11-22T05:45:44.112Z,29.40
2018-11-22T05:48:31.707Z,27.43
2018-11-22T05:51:19.295Z,29.83
2018-11-22T05:54:06.876Z,29.13
2018-11-22T05:56:54.465Z,29.33
2018-11-22T05:59:42.040Z,29.37
2018-11-22T06:02:29.644Z,27.97
2018-11-22T06:05:18.492Z,30.53
2018-11-22T06:08:06.060Z,29.97
2018-11-22T06:10:53.653Z,29.30
2018-11-22T06:13:41.288Z,29.37
2018-11-22T06:16:28.877Z,27.73
2018-11-22T06:19:16.469Z,29.37
2018-11-22T06:22:04.064Z,30.73
2018-11-22T06:24:51.657Z,28.33
2018-11-22T06:27:39.320Z,26.87
2018-11-22T06:30:46.101Z,26.40
2018-11-22T06:33:33.685Z,26.43
2018-11-22T06:36:21.287Z,25.93
2018-11-22T06:42:03.259Z,26.17
2018-11-22T06:44:50.840Z,29.10
2018-11-22T06:47:38.576Z,27.37
2018-11-22T06:50:26.475Z,26.97
2018-11-22T06:53:14.120Z,26.93
2018-11-22T06:56:01.668Z,27.80
2018-11-22T06:58:49.270Z,27.30
2018-11-22T07:01:36.858Z,27.07
2018-11-22T07:04:24.468Z,28.80
2018-11-22T07:07:12.068Z,28.80
2018-11-22T07:09:59.656Z,28.67
2018-11-22T07:12:47.294Z,29.07
2018-11-22T07:15:34.877Z,30.10
2018-11-22T07:18:22.463Z,31.33
2018-11-22T07:21:10.067Z,32.87
2018-11-22T07:23:57.669Z,32.97
2018-11-22T07:26:45.351Z,33.40
2018-11-22T07:29:32.960Z,33.80
2018-11-22T07:32:20.558Z,34.43
2018-11-22T12:18:15.227Z,25.00
2018-11-22T12:20:43.426Z,24.83
2018-11-22T12:23:11.609Z,24.03
2018-11-22T12:25:39.788Z,23.67
2018-11-22T12:28:07.943Z,23.90
2018-11-22T12:30:36.120Z,23.43
2018-11-22T12:33:21.652Z,23.23
2018-11-22T12:35:55.194Z,23.30
2018-11-22T12:38:28.923Z,23.13
2018-11-22T12:40:57.078Z,23.70
2018-11-22T12:43:25.388Z,23.97
2018-11-22T12:45:53.571Z,21.90
2018-11-22T12:48:21.800Z,24.60
2018-11-22T12:50:49.990Z,25.20
2018-11-22T12:53:18.255Z,24.00
2018-11-22T12:55:46.459Z,23.93
2018-11-22T12:58:15.100Z,23.97
2018-11-22T13:00:43.290Z,23.33
2018-11-22T13:03:11.485Z,23.30
2018-11-22T13:05:39.729Z,22.43
2018-11-22T13:08:07.892Z,21.53
2018-11-22T13:10:36.121Z,24.00
2018-11-22T13:13:04.314Z,23.30
2018-11-22T13:15:32.528Z,23.50
2018-11-22T13:18:00.748Z,27.33
2018-11-22T13:20:28.940Z,25.67
2018-11-22T13:22:57.123Z,24.33
2018-11-22T13:25:25.328Z,25.23
2018-11-22T13:27:53.503Z,23.10
2018-11-22T13:30:23.048Z,23.30
2018-11-22T13:32:51.778Z,23.20
2018-11-22T13:35:20.395Z,22.63
2018-11-22T13:37:49.671Z,23.47
2018-11-22T13:40:18.058Z,23.57
2018-11-22T13:42:47.037Z,23.73
2018-11-22T13:45:17.685Z,22.87
2018-11-22T13:47:46.887Z,22.03
2018-11-22T13:50:18.507Z,22.30
2018-11-22T13:52:47.939Z,22.73
2018-11-22T13:55:16.160Z,22.80
2018-11-22T13:57:44.329Z,23.83
2018-11-22T14:00:14.949Z,24.83
2018-11-22T14:02:43.176Z,22.37
2018-11-22T14:05:11.704Z,23.60
2018-11-22T14:07:39.542Z,23.33
2018-11-22T14:10:10.518Z,21.93
2018-11-22T14:12:38.914Z,21.17
2018-11-22T14:15:14.763Z,22.33
2018-11-22T14:17:43.340Z,25.60
2018-11-22T14:20:13.694Z,24.47
2018-11-22T14:22:41.859Z,23.33
2018-11-22T14:25:11.355Z,23.73
2018-11-22T14:27:40.147Z,22.60
2018-11-22T14:30:09.775Z,22.60
2018-11-22T14:32:38.464Z,23.17
2018-11-22T14:35:08.135Z,24.47
2018-11-22T14:37:36.996Z,24.40
2018-11-22T14:40:07.469Z,23.67
2018-11-22T14:42:35.640Z,26.03
2018-11-22T14:45:03.920Z,23.53
2018-11-22T14:47:32.195Z,25.93
2018-11-22T14:50:00.399Z,24.07
2018-11-22T14:52:28.562Z,23.57
2018-11-22T14:54:56.715Z,24.80
2018-11-22T14:57:25.112Z,26.03
2018-11-22T14:59:53.274Z,24.97
2018-11-22T15:02:21.436Z,25.23
2018-11-22T15:04:49.742Z,25.93
2018-11-22T15:07:17.903Z,24.53
2018-11-22T15:09:46.088Z,25.53
2018-11-22T15:12:14.248Z,25.73
2018-11-22T15:14:42.438Z,23.50
2018-11-22T15:17:10.609Z,25.10
2018-11-22T15:19:38.775Z,25.90
2018-11-22T15:22:06.963Z,26.90
2018-11-22T15:24:35.131Z,25.13
2018-11-22T15:27:03.332Z,25.57
2018-11-22T15:29:31.506Z,25.97
2018-11-22T15:31:59.973Z,28.30
2018-11-22T15:34:28.157Z,25.30
2018-11-22T15:36:56.356Z,29.30
2018-11-22T15:39:24.518Z,27.83
2018-11-22T15:41:52.702Z,25.93
2018-11-22T15:44:20.868Z,25.20
2018-11-22T15:46:49.057Z,28.03
2018-11-22T15:49:17.258Z,26.00
2018-11-22T15:51:45.404Z,26.13
2018-11-22T15:54:13.597Z,27.47
2018-11-22T15:56:41.759Z,26.03
2018-11-22T15:59:09.916Z,27.37
2018-11-22T16:01:38.079Z,27.30
2018-11-22T16:04:06.248Z,28.27
2018-11-22T16:06:34.404Z,28.10
2018-11-22T16:09:02.621Z,29.43
2018-11-22T16:11:30.783Z,29.70
2018-11-22T16:13:58.951Z,34.77
2018-11-22T16:16:27.114Z,34.67
2018-11-22T16:18:55.280Z,29.80
2018-11-22T16:21:23.451Z,30.37
2018-11-22T16:23:51.630Z,30.37
2018-11-22T16:26:19.816Z,29.47
2018-11-22T16:28:47.978Z,29.83
2018-11-22T16:31:16.184Z,30.53
2018-11-22T16:33:44.337Z,30.23
2018-11-22T16:36:12.524Z,30.97
2018-11-22T16:38:40.704Z,31.57
2018-11-22T16:41:09.156Z,31.43
2018-11-22T16:43:37.348Z,31.40
2018-11-22T16:46:05.515Z,30.57
2018-11-22T16:48:33.668Z,31.23
2018-11-22T16:51:01.828Z,28.90
2018-11-22T16:53:29.990Z,32.73
2018-11-22T16:55:58.362Z,32.57
2018-11-22T16:58:26.535Z,37.67
2018-11-22T17:00:54.736Z,39.53
2018-11-22T17:03:22.887Z,36.87
2018-11-22T17:05:51.047Z,34.80
2018-11-22T17:08:19.204Z,34.97
2018-11-22T17:10:47.356Z,32.77
2018-11-22T17:13:15.535Z,34.23
2018-11-22T17:15:43.783Z,32.27
2018-11-22T17:18:12.256Z,32.20
2018-11-22T17:20:40.426Z,30.23
2018-11-22T17:23:08.807Z,31.00
2018-11-22T17:25:37.418Z,30.80
2018-11-22T17:28:07.017Z,32.37
2018-11-22T17:30:37.772Z,32.37
2018-11-22T17:33:05.964Z,29.47
2018-11-22T17:35:34.155Z,29.50
2018-11-22T17:38:03.621Z,28.83
2018-11-22T17:40:34.173Z,29.43
2018-11-22T17:43:02.357Z,29.87
2018-11-22T17:45:32.121Z,27.63
2018-11-22T17:48:00.397Z,29.87
2018-11-22T17:50:32.187Z,27.80
2018-11-22T17:53:00.684Z,30.37
2018-11-22T17:55:29.882Z,29.70
2018-11-22T17:57:58.062Z,27.33
2018-11-22T18:00:27.563Z,28.10
2018-11-22T18:02:56.995Z,27.73
2018-11-22T18:05:27.228Z,27.20
2018-11-22T18:07:53.701Z,25.30
2018-11-22T18:10:23.362Z,27.50
2018-11-22T18:12:52.263Z,28.00
2018-11-22T18:15:21.246Z,28.33
2018-11-22T18:17:49.856Z,29.37
2018-11-22T18:20:20.057Z,29.07
2018-11-22T18:22:49.054Z,30.93
2018-11-22T18:25:19.508Z,30.23
2018-11-22T18:27:48.127Z,29.43
2018-11-22T18:30:21.004Z,30.70
2018-11-22T18:32:50.781Z,30.87
2018-11-22T18:35:18.975Z,32.30
2018-11-22T18:37:47.165Z,31.53
2018-11-22T18:40:17.977Z,30.47
2018-11-22T18:42:47.030Z,33.63
2018-11-22T18:45:16.853Z,36.30
2018-11-22T18:47:46.128Z,33.40
2018-11-22T18:50:17.439Z,35.43
2018-11-22T18:52:46.073Z,34.87
2018-11-22T18:55:14.315Z,37.83
2018-11-22T18:57:42.840Z,36.27
2018-11-22T19:00:13.332Z,36.13
2018-11-22T19:02:41.716Z,36.40
2018-11-22T19:05:11.040Z,36.27
2018-11-22T19:07:39.729Z,35.37
2018-11-22T19:10:13.316Z,36.00
2018-11-22T19:12:41.756Z,37.00
2018-11-22T19:15:11.937Z,34.53
2018-11-22T19:17:40.821Z,34.40
2018-11-22T19:20:11.131Z,34.50
2018-11-22T19:22:39.319Z,34.30
2018-11-22T19:25:07.912Z,35.73
2018-11-22T19:27:36.198Z,34.67
2018-11-22T19:30:06.081Z,37.53
2018-11-22T19:32:34.280Z,39.63
2018-11-22T19:35:02.473Z,40.40
2018-11-22T19:37:30.666Z,38.10
2018-11-22T19:39:58.844Z,39.43
2018-11-22T19:42:27.083Z,42.10
2018-11-22T19:44:55.287Z,41.23
2018-11-22T19:47:23.480Z,40.73
2018-11-22T19:49:51.708Z,39.10
2018-11-22T19:52:20.067Z,37.43
2018-11-22T19:54:48.346Z,38.73
2018-11-22T19:57:16.584Z,38.67
2018-11-22T19:59:44.753Z,40.73
2018-11-22T20:02:12.975Z,39.73
2018-11-22T20:04:41.171Z,38.90
2018-11-22T20:07:09.347Z,39.40
2018-11-22T20:09:37.603Z,37.27
2018-11-22T20:12:05.792Z,37.87
2018-11-22T20:14:33.995Z,37.47
2018-11-22T20:17:02.195Z,38.87
2018-11-22T20:19:30.375Z,37.80
2018-11-22T20:21:58.572Z,38.03
2018-11-22T20:24:26.751Z,37.37
2018-11-22T20:26:54.952Z,36.90
2018-11-22T20:29:23.111Z,37.40
2018-11-22T20:31:51.312Z,35.50
2018-11-22T20:34:19.524Z,36.73
2018-11-22T20:36:47.732Z,37.57
2018-11-22T20:39:15.931Z,36.70
2018-11-22T20:41:44.116Z,35.50
2018-11-22T20:44:12.326Z,37.20
2018-11-22T20:46:40.504Z,37.23
2018-11-22T20:49:08.676Z,37.13
2018-11-22T20:51:36.855Z,37.97
2018-11-22T20:54:05.102Z,37.77
2018-11-22T20:56:33.274Z,38.30
2018-11-22T20:59:01.480Z,36.07
2018-11-22T21:01:29.667Z,37.20
2018-11-22T21:03:57.855Z,35.63
2018-11-22T21:06:26.024Z,36.90
2018-11-22T21:08:54.539Z,37.40
2018-11-22T21:11:22.736Z,36.40
2018-11-22T21:13:50.914Z,38.47
2018-11-22T21:16:19.103Z,36.57
2018-11-22T21:18:47.517Z,37.70
2018-11-22T21:21:15.708Z,38.23
2018-11-22T21:23:43.887Z,36.63
2018-11-22T21:26:14.400Z,35.57
2018-11-22T21:28:40.221Z,34.83
2018-11-22T21:31:08.396Z,35.67
2018-11-22T21:33:36.564Z,34.27
2018-11-22T21:36:04.859Z,35.57
2018-11-22T21:38:33.039Z,34.53
2018-11-22T21:41:01.221Z,33.20
2018-11-22T21:43:29.444Z,32.97
2018-11-22T21:45:57.624Z,34.13
2018-11-22T21:48:25.807Z,34.80
2018-11-22T21:50:53.979Z,34.47
2018-11-22T21:53:22.161Z,34.20
2018-11-22T21:55:50.364Z,33.53
2018-11-22T21:58:18.545Z,34.40
2018-11-22T22:00:46.728Z,33.37
2018-11-22T22:03:14.911Z,35.27
2018-11-22T22:05:43.085Z,36.53
2018-11-22T22:08:11.239Z,36.50
2018-11-22T22:10:39.420Z,35.60
2018-11-22T22:13:07.604Z,36.77
2018-11-22T22:15:36.564Z,36.47
2018-11-22T22:18:05.156Z,36.17
2018-11-22T22:20:34.435Z,37.80
2018-11-22T22:23:02.595Z,37.27
2018-11-22T22:25:30.850Z,36.53
2018-11-22T22:27:59.399Z,37.33
2018-11-22T22:30:28.790Z,36.77
2018-11-22T22:32:58.424Z,34.47
2018-11-22T22:35:26.604Z,37.17
2018-11-22T22:37:54.780Z,38.03
2018-11-22T22:40:24.172Z,37.57
2018-11-22T22:42:53.595Z,35.93
2018-11-22T22:45:22.797Z,41.00
2018-11-22T22:47:51.373Z,47.27
2018-11-22T22:50:21.612Z,41.00
2018-11-22T22:52:51.038Z,38.03
2018-11-22T22:55:19.246Z,37.47
2018-11-22T22:57:47.415Z,36.17
2018-11-22T23:00:23.684Z,35.67
2018-11-22T23:02:57.019Z,32.40
2018-11-22T23:05:25.825Z,31.73
2018-11-22T23:07:54.192Z,31.37
2018-11-22T23:10:22.793Z,31.43
2018-11-22T23:12:51.052Z,30.10
2018-11-22T23:15:19.858Z,29.77
2018-11-22T23:17:48.079Z,30.50
2018-11-22T23:20:19.229Z,28.33
2018-11-22T23:22:47.877Z,27.13
2018-11-22T23:25:16.985Z,28.87
2018-11-22T23:27:45.166Z,29.33
2018-11-22T23:30:19.429Z,27.33
2018-11-22T23:32:48.725Z,29.37
2018-11-22T23:35:17.276Z,28.93
2018-11-22T23:37:45.544Z,29.13
2018-11-22T23:40:15.886Z,30.90
2018-11-22T23:42:44.131Z,31.43
2018-11-22T23:45:13.484Z,31.47
2018-11-22T23:47:42.147Z,30.93
2018-11-22T23:50:14.131Z,29.03
2018-11-22T23:52:43.435Z,29.80
2018-11-22T23:55:11.675Z,29.30
2018-11-22T23:57:40.205Z,28.73
